Time;durP1;ratioP1;P1;durP2;ratioP2;P2;SDS_P1;SDS_P2;PMS_P1;PMS_P2;Temp;Humidity;BMP_temperature;BMP_pressure;BME280_temperature;BME280_humidity;BME280_pressure;Samples;Min_cycle;Max_cycle;Signal;HPM_P1;HPM_P2
2021/08/19 00:01:26;;;;;;;10.90;4.72;;;18.60;86.60;;;;;;4997123;28;20034;-51
2021/08/19 00:03:52;;;;;;;12.15;4.82;;;18.60;87.10;;;;;;4996630;28;20129;-50
2021/08/19 00:06:18;;;;;;;8.57;4.95;;;;;;;;;;4996914;28;20058;-50
2021/08/19 00:08:44;;;;;;;9.20;4.88;;;;;;;;;;4996835;28;20034;-50
2021/08/19 00:11:11;;;;;;;10.70;4.88;;;;;;;;;;4996678;28;20030;-50
2021/08/19 00:13:37;;;;;;;9.93;4.35;;;;;;;;;;4996691;28;20586;-51
2021/08/19 00:16:03;;;;;;;10.00;5.35;;;;;;;;;;4996970;28;20026;-50
2021/08/19 00:18:30;;;;;;;7.57;5.03;;;;;;;;;;4996529;28;20486;-52
2021/08/19 00:20:56;;;;;;;10.93;4.75;;;;;;;;;;4996577;28;20030;-50
2021/08/19 00:23:22;;;;;;;8.60;4.50;;;18.40;97.80;;;;;;4996554;28;20046;-50
2021/08/19 00:25:48;;;;;;;8.10;5.22;;;18.50;97.50;;;;;;4996377;28;20127;-50
2021/08/19 00:28:13;;;;;;;8.50;4.80;;;18.50;97.50;;;;;;4994576;28;20065;-52
2021/08/19 00:30:39;;;;;;;8.38;5.18;;;18.50;97.60;;;;;;5008540;28;20022;-50
2021/08/19 00:33:05;;;;;;;10.57;5.75;;;;;;;;;;5016102;28;20365;-51
2021/08/19 00:35:31;;;;;;;7.38;4.55;;;;;;;;;;5015888;28;20466;-51
2021/08/19 00:37:58;;;;;;;10.27;5.10;;;;;;;;;;5016019;28;20040;-51
2021/08/19 00:40:24;;;;;;;10.90;5.03;;;;;;;;;;5015896;28;20416;-50
2021/08/19 00:42:51;;;;;;;8.63;4.95;;;18.50;95.50;;;;;;5030142;28;20437;-51
2021/08/19 00:45:18;;;;;;;9.10;5.18;;;18.50;93.90;;;;;;5015932;28;20373;-51
2021/08/19 00:47:44;;;;;;;9.85;5.15;;;18.50;94.10;;;;;;5015464;28;20094;-51
2021/08/19 00:50:10;;;;;;;7.63;4.57;;;18.60;94.30;;;;;;5015758;28;20466;-51
2021/08/19 00:52:38;;;;;;;12.85;5.45;;;18.50;94.40;;;;;;5015213;28;20046;-50
2021/08/19 00:55:05;;;;;;;8.48;4.95;;;18.50;94.50;;;;;;5015723;28;20038;-51
2021/08/19 00:57:31;;;;;;;8.45;4.80;;;;;;;;;;5015617;28;20477;-50
2021/08/19 00:59:59;;;;;;;7.90;4.75;;;;;;;;;;5015537;28;20384;-51
2021/08/19 01:02:25;;;;;;;9.60;6.03;;;;;;;;;;5015456;28;20049;-50
2021/08/19 01:04:51;;;;;;;8.30;5.35;;;;;;;;;;5013303;28;20046;-50
2021/08/19 01:07:18;;;;;;;7.85;4.60;;;;;;;;;;5015430;28;20060;-52
2021/08/19 01:09:44;;;;;;;9.02;4.85;;;;;;;;;;5015156;28;20164;-52
2021/08/19 01:12:12;;;;;;;9.43;4.95;;;;;;;;;;5015338;28;20386;-52
2021/08/19 01:14:39;;;;;;;8.77;4.47;;;;;;;;;;5015174;28;20026;-50
2021/08/19 01:17:13;;;;;;;11.18;5.35;;;;;;;;;;5015129;28;20114;-51
2021/08/19 01:19:39;;;;;;;11.07;5.05;;;;;;;;;;5014973;28;20026;-50
2021/08/19 01:22:05;;;;;;;10.45;5.18;;;;;;;;;;5015128;28;20458;-50
2021/08/19 01:24:31;;;;;;;10.20;4.95;;;20.00;93.60;;;;;;5015080;28;20101;-50
2021/08/19 01:26:58;;;;;;;10.57;4.93;;;18.30;96.60;;;;;;5012847;28;20493;-52
2021/08/19 01:29:24;;;;;;;11.77;5.65;;;18.30;94.50;;;;;;4979672;28;20034;-52
2021/08/19 01:32:00;;;;;;;9.15;5.00;;;;;;;;;;4979555;28;20103;-51
2021/08/19 01:34:26;;;;;;;8.75;4.55;;;;;;;;;;5012698;28;20405;-50
2021/08/19 01:36:52;;;;;;;9.45;5.88;;;17.30;88.60;;;;;;4979969;28;20037;-50
2021/08/19 01:39:18;;;;;;;8.38;4.97;;;;;;;;;;4979697;28;20033;-50
2021/08/19 01:41:44;;;;;;;10.13;5.68;;;17.10;86.00;;;;;;5012189;28;20401;-51
2021/08/19 01:44:09;;;;;;;10.25;5.45;;;16.90;91.30;;;;;;5012343;28;20038;-50
2021/08/19 01:46:35;;;;;;;9.15;5.35;;;16.60;90.00;;;;;;5012178;28;20030;-50
2021/08/19 01:49:02;;;;;;;8.13;5.18;;;16.70;89.90;;;;;;5012344;28;20520;-50
2021/08/19 01:51:28;;;;;;;8.60;5.30;;;16.80;95.60;;;;;;4979806;28;20042;-51
2021/08/19 01:53:54;;;;;;;8.52;5.28;;;16.60;94.50;;;;;;4946960;28;20184;-50
2021/08/19 01:56:23;;;;;;;10.15;5.18;;;16.50;95.50;;;;;;4979840;28;20088;-50
2021/08/19 01:58:50;;;;;;;9.55;5.28;;;;;;;;;;5012202;28;20084;-50
2021/08/19 02:01:26;;;;;;;7.57;5.45;;;17.00;95.50;;;;;;5013806;28;20489;-50
2021/08/19 02:03:53;;;;;;;9.73;5.18;;;;;;;;;;5013330;28;20033;-51
2021/08/19 02:06:20;;;;;;;9.95;5.10;;;;;;;;;;5028789;28;20046;-50
2021/08/19 02:08:46;;;;;;;12.10;5.38;;;;;;;;;;5014338;28;20479;-50
2021/08/19 02:11:12;;;;;;;12.07;5.30;;;;;;;;;;5012131;28;20122;-50
2021/08/19 02:13:38;;;;;;;9.18;4.93;;;;;;;;;;5014254;28;20029;-50
2021/08/19 02:16:05;;;;;;;11.35;5.22;;;;;;;;;;5013969;28;20061;-51
2021/08/19 02:18:31;;;;;;;8.48;4.72;;;;;;;;;;5028852;28;20469;-50
2021/08/19 02:20:57;;;;;;;6.93;4.95;;;;;;;;;;5014092;28;20038;-50
2021/08/19 02:23:23;;;;;;;9.45;4.85;;;;;;;;;;5013949;28;20095;-51
2021/08/19 02:25:49;;;;;;;8.20;4.70;;;17.20;99.90;;;;;;5013920;28;20038;-50
2021/08/19 02:28:15;;;;;;;12.15;6.65;;;17.40;99.90;;;;;;5013906;28;20033;-51
2021/08/19 02:30:41;;;;;;;10.45;5.40;;;17.30;99.90;;;;;;5013852;28;20026;-51
2021/08/19 02:33:07;;;;;;;7.60;4.97;;;17.30;99.80;;;;;;5011983;28;20045;-51
2021/08/19 02:35:33;;;;;;;7.72;4.93;;;17.30;99.20;;;;;;5028307;28;20041;-50
2021/08/19 02:38:01;;;;;;;8.82;4.88;;;17.20;99.70;;;;;;5013671;28;20026;-49
2021/08/19 02:40:29;;;;;;;9.60;5.00;;;17.30;99.30;;;;;;5013835;28;20462;-49
2021/08/19 02:42:55;;;;;;;7.13;4.85;;;17.20;99.40;;;;;;5013565;28;20044;-50
2021/08/19 02:45:22;;;;;;;13.13;5.45;;;17.30;98.40;;;;;;5013768;28;20113;-50
2021/08/19 02:47:48;;;;;;;7.40;4.50;;;17.30;98.90;;;;;;5013666;28;20038;-50
2021/08/19 02:50:14;;;;;;;9.07;5.18;;;17.20;99.50;;;;;;5013765;28;20033;-50
2021/08/19 02:52:40;;;;;;;13.02;5.10;;;17.10;99.10;;;;;;5013512;28;20057;-50
2021/08/19 02:55:07;;;;;;;9.25;5.47;;;17.20;96.30;;;;;;5027960;28;20060;-51
2021/08/19 02:57:33;;;;;;;9.73;5.13;;;17.30;94.90;;;;;;5013482;28;20022;-49
2021/08/19 02:59:59;;;;;;;8.75;5.13;;;17.30;94.90;;;;;;5013592;28;20486;-51
2021/08/19 03:02:25;;;;;;;7.93;4.38;;;17.40;94.50;;;;;;5013550;28;20129;-50
2021/08/19 03:04:51;;;;;;;7.18;4.78;;;;;;;;;;5013466;28;20454;-51
2021/08/19 03:07:17;;;;;;;8.70;5.35;;;16.70;96.80;;;;;;5013472;28;20452;-50
2021/08/19 03:09:43;;;;;;;9.10;5.20;;;;;;;;;;5012393;28;20117;-51
2021/08/19 03:12:09;;;;;;;8.02;5.03;;;15.90;88.20;;;;;;5013195;28;20025;-47
2021/08/19 03:14:36;;;;;;;6.43;4.50;;;15.70;88.60;;;;;;5014557;28;20030;-48
2021/08/19 03:17:03;;;;;;;7.78;4.63;;;15.90;87.50;;;;;;5017130;28;20030;-47
2021/08/19 03:19:29;;;;;;;7.13;4.78;;;16.10;87.00;;;;;;5017650;28;20033;-48
2021/08/19 03:21:55;;;;;;;6.70;4.60;;;16.20;86.70;;;;;;5017316;28;20026;-49
2021/08/19 03:24:20;;;;;;;6.32;4.78;;;16.10;87.30;;;;;;5017083;28;20061;-47
2021/08/19 03:26:46;;;;;;;9.68;4.90;;;16.00;87.10;;;;;;4982396;28;20113;-49
2021/08/19 03:29:12;;;;;;;8.93;5.07;;;16.00;87.00;;;;;;5014955;28;20041;-49
2021/08/19 03:31:38;;;;;;;7.78;5.03;;;16.10;87.10;;;;;;5031230;28;20034;-49
2021/08/19 03:34:04;;;;;;;8.60;5.13;;;16.30;86.50;;;;;;5017213;28;20033;-49
2021/08/19 03:36:30;;;;;;;10.77;4.65;;;16.50;85.70;;;;;;5017104;28;20040;-49
2021/08/19 03:38:55;;;;;;;10.45;4.70;;;16.50;85.90;;;;;;5031637;28;20065;-49
2021/08/19 03:41:22;;;;;;;8.63;5.38;;;16.20;86.20;;;;;;5017206;28;20030;-48
2021/08/19 03:43:47;;;;;;;12.02;5.13;;;15.90;87.30;;;;;;5016912;28;20034;-48
2021/08/19 03:46:14;;;;;;;15.00;4.85;;;16.10;87.30;;;;;;5014449;28;20049;-50
2021/08/19 03:48:41;;;;;;;16.23;5.70;;;16.30;86.50;;;;;;5016945;28;20076;-49
2021/08/19 03:51:09;;;;;;;9.73;4.70;;;16.40;85.70;;;;;;5017075;28;20042;-48
2021/08/19 03:53:36;;;;;;;12.10;5.20;;;16.50;85.70;;;;;;5016612;28;20040;-49
2021/08/19 03:56:05;;;;;;;11.23;4.45;;;16.50;85.40;;;;;;5016731;28;20485;-48
2021/08/19 03:58:31;;;;;;;11.75;4.45;;;16.60;85.30;;;;;;5031118;28;20045;-48
2021/08/19 04:00:57;;;;;;;6.78;4.60;;;16.60;85.30;;;;;;5015784;28;20441;-49
2021/08/19 04:03:23;;;;;;;15.13;4.78;;;16.60;85.00;;;;;;5016447;28;20037;-50
2021/08/19 04:05:49;;;;;;;8.95;4.25;;;16.80;92.50;;;;;;5030864;28;20038;-49
2021/08/19 04:08:15;;;;;;;19.90;5.25;;;16.70;86.50;;;;;;5016460;28;20046;-50
2021/08/19 04:10:41;;;;;;;20.52;5.07;;;16.60;85.30;;;;;;5015544;28;20022;-51
2021/08/19 04:13:06;;;;;;;17.55;5.32;;;16.60;85.30;;;;;;5016701;28;20022;-48
2021/08/19 04:15:32;;;;;;;11.88;4.30;;;16.70;85.30;;;;;;5016000;28;20021;-49
2021/08/19 04:17:58;;;;;;;10.20;4.57;;;16.80;84.80;;;;;;5016347;28;20033;-49
2021/08/19 04:20:24;;;;;;;13.20;5.18;;;16.90;84.50;;;;;;5030675;28;20042;-50
2021/08/19 04:22:49;;;;;;;12.00;4.85;;;16.40;85.40;;;;;;4981216;28;20195;-50
2021/08/19 04:25:16;;;;;;;10.55;5.57;;;16.50;85.80;;;;;;4980993;28;20030;-48
2021/08/19 04:27:42;;;;;;;15.02;5.03;;;16.20;86.30;;;;;;5029336;28;20123;-49
2021/08/19 04:30:09;;;;;;;7.72;4.65;;;15.90;87.60;;;;;;5023236;28;20081;-49
2021/08/19 04:32:36;;;;;;;9.13;4.25;;;15.70;88.60;;;;;;5012073;28;20524;-49
2021/08/19 04:35:03;;;;;;;5.63;3.90;;;15.50;90.20;;;;;;5013642;28;20034;-49
2021/08/19 04:37:29;;;;;;;6.50;3.72;;;15.60;90.20;;;;;;5013036;28;20219;-49
2021/08/19 04:39:54;;;;;;;6.55;3.83;;;15.90;90.30;;;;;;5015564;28;20034;-50
2021/08/19 04:42:20;;;;;;;7.35;4.55;;;15.80;90.00;;;;;;5015219;28;20034;-49
2021/08/19 04:44:46;;;;;;;7.50;4.43;;;15.70;90.10;;;;;;5014595;28;20022;-48
2021/08/19 04:47:12;;;;;;;8.45;4.65;;;15.80;90.20;;;;;;5015127;28;20109;-49
2021/08/19 04:49:38;;;;;;;7.40;4.82;;;15.90;90.30;;;;;;5015380;28;20041;-50
2021/08/19 04:52:04;;;;;;;5.53;4.32;;;16.20;90.00;;;;;;5013274;28;20470;-49
2021/08/19 04:54:29;;;;;;;7.28;4.63;;;16.50;89.10;;;;;;5015773;28;20030;-50
2021/08/19 04:56:55;;;;;;;9.10;4.45;;;;;;;;;;5015658;28;20026;-50
2021/08/19 04:59:22;;;;;;;7.28;4.53;;;;;;;;;;5029705;28;20033;-49
2021/08/19 05:01:49;;;;;;;10.45;4.63;;;16.90;87.30;;;;;;5013134;28;20125;-48
2021/08/19 05:04:14;;;;;;;10.25;6.38;;;17.10;87.50;;;;;;5015465;28;20498;-48
2021/08/19 05:06:40;;;;;;;11.95;6.82;;;17.20;87.30;;;;;;5015447;28;20181;-49
2021/08/19 05:09:06;;;;;;;10.75;6.38;;;17.20;87.30;;;;;;5014784;28;20026;-49
2021/08/19 05:11:33;;;;;;;10.05;5.78;;;17.20;88.30;;;;;;5015295;28;20053;-49
2021/08/19 05:13:59;;;;;;;10.60;5.35;;;17.30;88.70;;;;;;5029550;28;20038;-48
2021/08/19 05:16:26;;;;;;;11.88;7.03;;;17.10;89.10;;;;;;5015146;28;20026;-49
2021/08/19 05:18:52;;;;;;;13.75;5.88;;;17.20;89.90;;;;;;5015181;28;20026;-48
2021/08/19 05:21:18;;;;;;;10.95;6.65;;;17.00;90.20;;;;;;5014647;28;20072;-48
2021/08/19 05:23:44;;;;;;;10.50;6.88;;;17.20;90.10;;;;;;5015006;28;20419;-49
2021/08/19 05:26:10;;;;;;;20.02;10.52;;;17.40;90.00;;;;;;5015149;28;20058;-48
2021/08/19 05:28:36;;;;;;;12.32;7.28;;;17.30;90.30;;;;;;4980371;28;20045;-48
2021/08/19 05:31:02;;;;;;;15.77;8.80;;;17.40;90.50;;;;;;5015068;28;20025;-48
2021/08/19 05:33:28;;;;;;;13.15;8.23;;;17.60;90.20;;;;;;5014669;28;20046;-49
2021/08/19 05:35:54;;;;;;;12.98;7.45;;;17.70;89.80;;;;;;5029076;28;20034;-48
2021/08/19 05:38:19;;;;;;;10.55;6.72;;;17.80;89.50;;;;;;5015036;28;20041;-48
2021/08/19 05:40:45;;;;;;;13.73;8.02;;;18.10;88.90;;;;;;5029247;28;20429;-48
2021/08/19 05:43:11;;;;;;;16.10;7.05;;;18.30;88.10;;;;;;5014719;28;20060;-48
2021/08/19 05:45:37;;;;;;;14.07;7.53;;;18.60;87.50;;;;;;5013959;28;20057;-49
2021/08/19 05:48:04;;;;;;;16.83;7.78;;;18.70;86.60;;;;;;5029261;28;20546;-49
2021/08/19 05:50:30;;;;;;;15.88;8.10;;;18.90;86.00;;;;;;5029080;28;20065;-49
2021/08/19 05:52:56;;;;;;;19.77;7.28;;;18.90;85.90;;;;;;5014625;28;20042;-49
2021/08/19 05:55:22;;;;;;;16.67;7.53;;;19.10;85.60;;;;;;5014023;28;20496;-48
2021/08/19 05:57:50;;;;;;;17.05;8.75;;;19.20;85.20;;;;;;5014270;28;20062;-49
2021/08/19 06:00:20;;;;;;;19.75;9.25;;;19.20;84.40;;;;;;5027258;28;20038;-48
2021/08/19 06:02:46;;;;;;;17.13;8.15;;;19.20;85.00;;;;;;5028381;28;20045;-48
2021/08/19 06:05:12;;;;;;;15.55;7.70;;;19.20;84.30;;;;;;5014008;28;20021;-48
2021/08/19 06:07:37;;;;;;;12.25;7.80;;;19.30;84.70;;;;;;5014084;28;20366;-48
2021/08/19 06:10:04;;;;;;;16.33;7.90;;;19.60;86.40;;;;;;5013325;28;20469;-49
2021/08/19 06:12:30;;;;;;;24.35;8.63;;;;;;;;;;5002795;28;20125;-49
2021/08/19 06:14:56;;;;;;;25.85;8.95;;;19.80;83.20;;;;;;5008637;28;20045;-50
2021/08/19 06:17:22;;;;;;;31.15;9.32;;;19.80;83.00;;;;;;5017318;28;20466;-48
2021/08/19 06:19:47;;;;;;;26.83;9.40;;;20.00;82.90;;;;;;5009503;28;20026;-48
2021/08/19 06:22:13;;;;;;;24.70;7.57;;;20.30;97.60;;;;;;5008597;28;20052;-49
2021/08/19 06:24:39;;;;;;;19.98;7.28;;;20.50;82.60;;;;;;5008536;28;20065;-48
2021/08/19 06:27:05;;;;;;;19.25;7.13;;;20.40;82.90;;;;;;5009740;28;20037;-49
2021/08/19 06:29:31;;;;;;;15.50;5.88;;;20.40;82.40;;;;;;5007864;28;20477;-48
2021/08/19 06:31:57;;;;;;;10.88;4.80;;;;;;;;;;5008496;28;20033;-50
2021/08/19 06:34:22;;;;;;;13.88;5.80;;;20.30;80.10;;;;;;5006601;28;20030;-49
2021/08/19 06:36:48;;;;;;;11.48;5.00;;;20.30;80.60;;;;;;5009390;28;20365;-50
2021/08/19 06:39:14;;;;;;;10.98;5.05;;;20.40;81.70;;;;;;5027550;28;20038;-50
2021/08/19 06:41:40;;;;;;;9.85;5.03;;;20.40;80.50;;;;;;5013595;28;20029;-51
2021/08/19 06:44:06;;;;;;;13.60;4.95;;;20.40;80.70;;;;;;5010632;28;20517;-50
2021/08/19 06:46:32;;;;;;;9.27;5.15;;;20.50;80.80;;;;;;5013722;28;20022;-49
2021/08/19 06:48:57;;;;;;;9.63;5.15;;;20.60;80.90;;;;;;5013483;28;20528;-51
2021/08/19 06:51:23;;;;;;;7.60;4.50;;;20.70;80.10;;;;;;5013620;28;20100;-48
2021/08/19 06:53:49;;;;;;;8.25;4.72;;;20.60;79.70;;;;;;5013756;28;20034;-50
2021/08/19 06:56:15;;;;;;;10.13;5.22;;;20.80;80.30;;;;;;5013583;28;20097;-51
2021/08/19 06:58:41;;;;;;;10.75;5.45;;;20.80;78.90;;;;;;5013357;28;20107;-49
2021/08/19 07:01:07;;;;;;;10.80;4.57;;;21.00;78.90;;;;;;5010871;28;20355;-49
2021/08/19 07:15:59;;;;;;;10.77;4.80;;;21.30;77.00;;;;;;5069594;28;20727;-49
2021/08/19 07:18:24;;;;;;;7.30;3.35;;;22.50;73.60;;;;;;5072969;28;20051;-49
2021/08/19 07:20:50;;;;;;;5.63;3.38;;;22.60;72.80;;;;;;5058256;28;20051;-48
2021/08/19 07:23:16;;;;;;;7.13;3.50;;;22.80;78.40;;;;;;5059020;28;20444;-51
2021/08/19 07:25:42;;;;;;;6.00;2.60;;;22.80;70.50;;;;;;5057785;28;20025;-48
2021/08/19 07:28:07;;;;;;;7.72;3.40;;;22.90;68.40;;;;;;5071685;28;20033;-52
2021/08/19 07:30:34;;;;;;;10.30;3.53;;;23.00;69.80;;;;;;5056578;28;20086;-50
2021/08/19 07:32:59;;;;;;;6.47;3.13;;;23.00;69.50;;;;;;5058796;28;20021;-50
2021/08/19 07:35:25;;;;;;;6.75;3.33;;;23.20;69.00;;;;;;5083114;28;20056;-49
2021/08/19 07:37:53;;;;;;;7.07;2.95;;;23.20;68.50;;;;;;5057862;28;20020;-50
2021/08/19 07:40:24;;;;;;;6.95;3.00;;;23.50;76.80;;;;;;5053602;28;20036;-51
2021/08/19 07:42:54;;;;;;;7.03;3.30;;;23.60;74.40;;;;;;5053234;28;20025;-50
2021/08/19 07:45:20;;;;;;;7.95;3.33;;;23.70;68.00;;;;;;5059368;28;20121;-48
2021/08/19 07:47:46;;;;;;;5.18;2.90;;;23.90;70.00;;;;;;5056643;28;20514;-50
2021/08/19 07:50:13;;;;;;;6.47;3.13;;;24.10;90.50;;;;;;5055726;28;20151;-50
2021/08/19 07:52:39;;;;;;;6.72;2.90;;;24.10;80.50;;;;;;5055274;28;20492;-52
2021/08/19 07:55:07;;;;;;;9.15;2.75;;;24.10;67.10;;;;;;5069118;28;20050;-51
2021/08/19 07:57:47;;;;;;;4.80;2.80;;;24.10;68.70;;;;;;5061316;28;20021;-49
2021/08/19 08:00:17;;;;;;;4.63;2.38;;;24.20;67.10;;;;;;5061675;28;20039;-51
2021/08/19 08:02:43;;;;;;;6.60;3.15;;;24.50;65.20;;;;;;5066002;28;20023;-49
2021/08/19 08:05:09;;;;;;;5.78;3.05;;;24.40;64.80;;;;;;5060086;28;20376;-50
2021/08/19 08:07:35;;;;;;;8.43;3.25;;;24.60;65.30;;;;;;5058010;28;20028;-51
2021/08/19 08:10:05;;;;;;;5.63;3.10;;;24.70;63.70;;;;;;5064174;28;20040;-52
2021/08/19 08:12:31;;;;;;;6.80;3.08;;;24.90;63.80;;;;;;5068396;28;20029;-50
2021/08/19 08:14:57;;;;;;;5.55;2.80;;;25.20;64.20;;;;;;5055362;28;20362;-49
2021/08/19 08:17:22;;;;;;;3.72;2.75;;;25.50;63.10;;;;;;5064957;28;20029;-50
2021/08/19 08:19:49;;;;;;;6.35;2.90;;;;;;;;;;5082631;28;20116;-50
2021/08/19 08:22:16;;;;;;;5.22;3.30;;;;;;;;;;5064176;28;20391;-49
2021/08/19 08:24:42;;;;;;;6.13;2.72;;;26.10;74.10;;;;;;5060515;28;20021;-52
2021/08/19 08:27:08;;;;;;;7.40;3.28;;;26.00;60.00;;;;;;5044938;28;20037;-50
2021/08/19 08:29:34;;;;;;;5.40;3.20;;;25.90;60.80;;;;;;5074542;28;20099;-51
2021/08/19 08:32:10;;;;;;;6.20;3.80;;;26.10;60.60;;;;;;5046795;28;20049;-49
2021/08/19 08:34:38;;;;;;;4.97;3.20;;;26.30;60.70;;;;;;5049933;28;20510;-53
2021/08/19 08:37:05;;;;;;;5.75;3.38;;;26.90;65.00;;;;;;5046148;28;20060;-52
2021/08/19 08:39:33;;;;;;;5.47;3.50;;;27.10;60.30;;;;;;5053504;28;20087;-49
2021/08/19 08:41:59;;;;;;;4.95;3.00;;;26.90;58.50;;;;;;5049093;28;20528;-51
2021/08/19 08:44:28;;;;;;;6.57;3.22;;;27.30;58.10;;;;;;5045391;28;20026;-50
2021/08/19 08:46:55;;;;;;;8.02;3.35;;;;;;;;;;5046542;28;20083;-52
2021/08/19 08:49:23;;;;;;;5.70;3.17;;;27.70;89.60;;;;;;5050464;28;20064;-50
2021/08/19 08:51:55;;;;;;;4.65;2.75;;;;;;;;;;5043877;28;20029;-52
2021/08/19 08:54:22;;;;;;;6.70;3.42;;;;;;;;;;5048425;28;20131;-52
2021/08/19 08:56:48;;;;;;;4.95;3.00;;;;;;;;;;5077630;28;20040;-52
2021/08/19 08:59:14;;;;;;;5.90;3.13;;;28.20;91.60;;;;;;5045422;28;20030;-48
2021/08/19 09:01:40;;;;;;;4.95;2.97;;;;;;;;;;5044604;28;20044;-50
2021/08/19 09:04:06;;;;;;;5.50;3.25;;;;;;;;;;5044983;28;20032;-51
2021/08/19 09:06:40;;;;;;;7.20;3.25;;;;;;;;;;5041962;28;20037;-48
2021/08/19 09:09:18;;;;;;;6.22;3.33;;;;;;;;;;5045646;28;20132;-49
2021/08/19 09:11:45;;;;;;;6.90;3.08;;;;;;;;;;5067415;28;20403;-49
2021/08/19 09:14:20;;;;;;;7.38;3.47;;;;;;;;;;5021372;28;20052;-51
2021/08/19 09:16:49;;;;;;;6.85;3.70;;;;;;;;;;5047941;28;20039;-51
2021/08/19 09:19:17;;;;;;;6.32;3.72;;;;;;;;;;5046839;28;20098;-49
2021/08/19 09:21:51;;;;;;;8.98;3.60;;;;;;;;;;5053366;28;20035;-50
2021/08/19 09:24:19;;;;;;;7.50;3.83;;;;;;;;;;5042240;28;20022;-50
2021/08/19 09:26:45;;;;;;;4.82;3.13;;;;;;;;;;5047332;28;20040;-51
2021/08/19 09:29:15;;;;;;;4.88;3.30;;;;;;;;;;5046619;28;20071;-51
2021/08/19 09:31:41;;;;;;;5.35;3.13;;;;;;;;;;5053660;28;20037;-49
2021/08/19 09:34:07;;;;;;;4.10;3.13;;;28.50;91.00;;;;;;5057937;28;20099;-51
2021/08/19 09:36:35;;;;;;;8.85;3.75;;;28.80;78.70;;;;;;5067763;28;20040;-52
2021/08/19 09:39:04;;;;;;;7.15;3.80;;;;;;;;;;5063450;28;20052;-52
2021/08/19 09:41:30;;;;;;;5.60;3.53;;;;;;;;;;5063544;28;20086;-51
2021/08/19 09:43:56;;;;;;;6.30;3.50;;;;;;;;;;5061691;28;20064;-52
2021/08/19 09:46:38;;;;;;;7.57;3.22;;;;;;;;;;5056727;28;20376;-49
2021/08/19 09:49:27;;;;;;;4.40;3.25;;;29.70;86.60;;;;;;5042277;28;20040;-52
2021/08/19 09:52:07;;;;;;;4.30;3.05;;;;;;;;;;5065957;28;20029;-49
2021/08/19 09:54:35;;;;;;;6.65;3.00;;;30.50;67.80;;;;;;5069737;28;20048;-51
2021/08/19 09:57:02;;;;;;;7.90;3.55;;;30.30;53.30;;;;;;5044062;28;20076;-49
2021/08/19 09:59:39;;;;;;;7.80;3.70;;;30.20;53.50;;;;;;5081727;28;20091;-52
2021/08/19 10:02:07;;;;;;;6.82;3.10;;;30.50;54.20;;;;;;5058986;28;20095;-51
2021/08/19 10:04:34;;;;;;;5.57;3.50;;;30.20;52.10;;;;;;5046208;28;20045;-51
2021/08/19 10:07:02;;;;;;;5.75;3.13;;;30.40;52.80;;;;;;5052400;28;20025;-49
2021/08/19 10:09:28;;;;;;;4.80;2.90;;;30.60;52.50;;;;;;5052066;28;20484;-50
2021/08/19 10:11:56;;;;;;;6.07;2.92;;;;;;;;;;5052303;28;20123;-49
2021/08/19 10:14:26;;;;;;;4.13;2.33;;;;;;;;;;5052078;28;20051;-51
2021/08/19 10:16:53;;;;;;;4.43;2.30;;;;;;;;;;5052694;28;20033;-51
2021/08/19 10:19:30;;;;;;;4.70;2.50;;;;;;;;;;5052095;28;20071;-50
2021/08/19 10:21:58;;;;;;;4.10;2.30;;;;;;;;;;5052046;28;20037;-50
2021/08/19 10:24:29;;;;;;;5.88;2.58;;;;;;;;;;5052205;28;20044;-50
2021/08/19 10:27:18;;;;;;;4.70;2.20;;;;;;;;;;5051884;28;20039;-50
2021/08/19 10:29:50;;;;;;;3.67;2.42;;;;;;;;;;5052251;28;20055;-49
2021/08/19 10:32:32;;;;;;;5.70;2.65;;;;;;;;;;5068880;28;20041;-49
2021/08/19 10:34:59;;;;;;;5.35;2.28;;;;;;;;;;5054458;28;20041;-52
2021/08/19 10:37:44;;;;;;;6.10;2.45;;;;;;;;;;5054087;28;20075;-52
2021/08/19 10:40:25;;;;;;;6.03;2.50;;;;;;;;;;5053481;28;20036;-50
2021/08/19 10:42:55;;;;;;;4.32;2.22;;;;;;;;;;5053840;28;20037;-50
2021/08/19 10:45:27;;;;;;;3.75;2.22;;;31.50;80.70;;;;;;5068754;28;20068;-53
2021/08/19 10:48:13;;;;;;;2.97;1.83;;;31.70;82.40;;;;;;5053581;28;20075;-50
2021/08/19 10:50:41;;;;;;;4.07;2.47;;;;;;;;;;5046038;28;20056;-52
2021/08/19 10:53:13;;;;;;;3.70;2.03;;;31.70;88.20;;;;;;5053508;28;20037;-50
2021/08/19 10:55:49;;;;;;;2.50;2.10;;;;;;;;;;5068599;28;20442;-50
2021/08/19 10:58:27;;;;;;;3.42;1.60;;;;;;;;;;5069008;28;20106;-51
2021/08/19 11:00:55;;;;;;;3.53;2.38;;;;;;;;;;5053436;28;20028;-49
2021/08/19 11:03:38;;;;;;;2.78;1.65;;;32.00;56.10;;;;;;5053738;28;20044;-49
2021/08/19 11:06:05;;;;;;;4.78;1.75;;;32.00;55.70;;;;;;5053394;28;20025;-51
2021/08/19 11:08:51;;;;;;;3.40;1.77;;;31.50;50.20;;;;;;5068707;28;20124;-49
2021/08/19 11:11:31;;;;;;;4.20;2.00;;;31.40;50.30;;;;;;5053779;28;20040;-49
2021/08/19 11:13:59;;;;;;;3.60;1.30;;;31.40;50.80;;;;;;5068508;28;20124;-50
2021/08/19 11:16:25;;;;;;;2.35;1.20;;;31.50;50.20;;;;;;5052272;28;20037;-49
2021/08/19 11:18:51;;;;;;;2.40;1.55;;;;;;;;;;5067010;28;20561;-50
2021/08/19 11:21:17;;;;;;;2.47;1.05;;;32.30;49.20;;;;;;5065782;28;20056;-49
2021/08/19 11:23:44;;;;;;;4.25;1.20;;;31.60;46.70;;;;;;5041683;28;20463;-51
2021/08/19 11:26:17;;;;;;;4.38;1.33;;;32.10;49.90;;;;;;5052124;28;20025;-52
2021/08/19 11:28:49;;;;;;;2.13;1.75;;;32.30;47.80;;;;;;5041001;28;20032;-50
2021/08/19 11:31:20;;;;;;;1.98;1.20;;;31.80;49.20;;;;;;5051778;28;20025;-49
2021/08/19 11:33:57;;;;;;;2.35;1.10;;;;;;;;;;5049129;28;20678;-51
2021/08/19 11:36:24;;;;;;;3.38;1.45;;;;;;;;;;5051258;28;20032;-52
2021/08/19 11:53:50;;;;;;;4.72;1.60;;;31.80;45.60;;;;;;5056874;28;20417;-52
2021/08/19 11:56:16;;;;;;;3.55;1.70;;;32.00;48.00;;;;;;5046781;28;20423;-52
2021/08/19 11:58:42;;;;;;;6.38;1.70;;;31.90;47.50;;;;;;5048692;28;20464;-50
2021/08/19 12:01:10;;;;;;;3.13;1.88;;;31.90;47.90;;;;;;5044200;28;20029;-50
2021/08/19 12:06:59;;;;;;;7.32;1.80;;;32.10;48.00;;;;;;5045647;28;20171;-51
2021/08/19 12:09:28;;;;;;;3.63;1.42;;;32.70;46.30;;;;;;5044056;28;20026;-51
2021/08/19 12:11:55;;;;;;;4.85;1.60;;;32.50;47.00;;;;;;5023238;28;20415;-50
2021/08/19 12:14:30;;;;;;;5.57;1.67;;;32.20;48.60;;;;;;5047430;28;20448;-48
2021/08/19 12:16:56;;;;;;;2.83;1.40;;;32.30;49.20;;;;;;5021316;28;20361;-49
2021/08/19 12:19:24;;;;;;;2.25;1.50;;;32.30;47.60;;;;;;5044029;28;20437;-48
2021/08/19 12:21:53;;;;;;;4.97;1.63;;;31.90;46.30;;;;;;5047093;28;20069;-49
2021/08/19 12:24:39;;;;;;;4.32;1.42;;;32.10;48.20;;;;;;5045071;28;20032;-50
2021/08/19 12:27:09;;;;;;;4.72;1.70;;;31.80;48.10;;;;;;5008558;28;20040;-49
2021/08/19 12:29:38;;;;;;;7.57;1.67;;;32.50;48.30;;;;;;5028736;28;20080;-49
2021/08/19 12:32:04;;;;;;;3.40;2.10;;;32.80;48.00;;;;;;5046587;28;20118;-48
2021/08/19 12:35:14;;;;;;;3.20;1.77;;;32.60;48.60;;;;;;5028942;28;20108;-50
2021/08/19 12:37:52;;;;;;;5.20;1.80;;;32.90;46.90;;;;;;4981945;28;20054;-50
2021/08/19 12:40:18;;;;;;;4.28;1.77;;;33.50;64.90;;;;;;4982121;28;20035;-49
2021/08/19 12:42:45;;;;;;;4.22;1.50;;;33.40;46.60;;;;;;4954080;28;20394;-51
2021/08/19 12:45:22;;;;;;;4.18;1.73;;;33.00;46.20;;;;;;4962888;28;20136;-50
2021/08/19 12:48:08;;;;;;;4.47;2.10;;;33.00;47.00;;;;;;4934757;28;20031;-50
2021/08/19 12:50:36;;;;;;;6.78;1.80;;;32.70;49.00;;;;;;4963152;28;20039;-51
2021/08/19 12:53:07;;;;;;;3.42;1.77;;;32.50;64.80;;;;;;4963047;28;20063;-49
2021/08/19 12:55:32;;;;;;;3.30;1.43;;;32.30;48.60;;;;;;4951104;28;20039;-50
2021/08/19 12:57:59;;;;;;;4.95;1.90;;;32.80;48.90;;;;;;4926247;29;20677;-48
2021/08/19 13:00:32;;;;;;;4.95;1.88;;;32.30;47.30;;;;;;4948770;28;20036;-48
2021/08/19 13:02:59;;;;;;;2.60;1.70;;;32.10;48.00;;;;;;4920540;29;20098;-50
2021/08/19 13:05:28;;;;;;;4.05;1.98;;;31.60;46.70;;;;;;4954324;29;20066;-51
2021/08/19 13:07:55;;;;;;;3.92;1.52;;;31.90;47.50;;;;;;4951324;29;20530;-50
2021/08/19 13:10:23;;;;;;;3.35;1.70;;;32.20;47.40;;;;;;4952270;29;20043;-52
2021/08/19 13:12:49;;;;;;;2.25;1.70;;;32.00;47.00;;;;;;4951634;29;20431;-51
2021/08/19 13:15:16;;;;;;;4.15;1.60;;;32.50;46.90;;;;;;4978961;28;20042;-51
2021/08/19 13:17:44;;;;;;;2.42;1.63;;;32.60;47.90;;;;;;4988745;28;20038;-50
2021/08/19 13:20:11;;;;;;;3.78;1.67;;;32.40;46.80;;;;;;4988045;28;20026;-49
2021/08/19 13:22:37;;;;;;;2.50;1.58;;;32.30;47.50;;;;;;5005480;28;20041;-51
2021/08/19 13:25:03;;;;;;;3.05;1.30;;;32.70;47.50;;;;;;5030705;28;20037;-50
2021/08/19 13:27:29;;;;;;;2.97;1.80;;;32.70;47.50;;;;;;4965746;28;20417;-51
2021/08/19 13:29:56;;;;;;;2.22;1.30;;;32.90;47.40;;;;;;5029894;28;20040;-49
2021/08/19 13:32:23;;;;;;;6.10;1.63;;;33.00;47.10;;;;;;4977197;28;20072;-51
2021/08/19 13:34:49;;;;;;;2.22;1.40;;;33.30;46.70;;;;;;5010170;28;20119;-51
2021/08/19 13:37:15;;;;;;;3.65;1.52;;;33.40;46.40;;;;;;5006595;28;20041;-50
2021/08/19 13:39:43;;;;;;;4.43;1.95;;;32.70;47.00;;;;;;4977912;28;20126;-50
2021/08/19 13:42:09;;;;;;;4.32;2.30;;;32.70;47.40;;;;;;4991975;28;20539;-48
2021/08/19 13:44:36;;;;;;;4.78;1.40;;;32.90;47.50;;;;;;5008420;28;20072;-48
2021/08/19 13:47:02;;;;;;;4.18;1.52;;;32.70;46.90;;;;;;5010433;28;20527;-50